Norcatur, KS (67653)

6:58 AM CST on February 24, 2017 (GMT -0600)
MCLNK1 | | Change Station
Active Advisory: Special Statement

Elev 2348 ft 39.77 °N, 100.10 °W | Updated 27 minutes ago

Overcast
Overcast
25.0 °F
Feels Like 25.0 °F
N
-
Wind Variable Wind from North

Today
High -- | Low -- °F
--% Chance of Precip.
Yesterday
High -- | Low -- °F
Precip. -- in
Pressure 29.95 in
Visibility 1.5 miles
Clouds Overcast 2500 ft
Dew Point Not available.
Humidity Not available.
Rainfall 0.03 in
Snow Depth Not available.
7:20 AM 6:27 PM
Waning Crescent, 5% visible
METAR KMCK 241253Z AUTO 36020G29KT 1 1/2SM -SN BR OVC025 M04/M06 A2986 RMK AO2 PK WND 36029/1244 SLP140 P0000 T10441061
Pressure 29.95 in
Visibility 1.5 miles
Clouds Overcast 2500 ft
Dew Point Not available.
Humidity Not available.
Rainfall 0.03 in
Snow Depth Not available.
7:20 AM 6:27 PM
Waning Crescent, 5% visible
METAR KMCK 241253Z AUTO 36020G29KT 1 1/2SM -SN BR OVC025 M04/M06 A2986 RMK AO2 PK WND 36029/1244 SLP140 P0000 T10441061

Get Your Daily Forecast Email!

Thanks for signing up!

Be on the lookout for a verification email in your inbox.

You'll start receiving the daily forecast at 8 AM.

×

10-Day Weather Forecast

Almanac

Astronomy

Feb. 24, 2017 Rise Set
Actual Time
Civil Twilight
Nautical Twilight
Astronomical Twilight
Moon
Length of Visible Light
Length of Day
Tomorrow will be .
, % of the Moon is Illuminated

Today's Extremes

State Highs State Lows

Community

WunderPhotos

Upload Photos

1,962,540 photos uploaded!

WunderBlog® & News

Nearby

Air Quality

  Air Quality AQ Index Pollutant
Not available.

Snow Depth

Station Depth Elevation

Earthquake Activity

City Distance Mag. Time & Date
Minimum magnitude displayed is 2.5.

Coastal Water Temperatures

Place Temperature

Stations

Nearby Weather Stations

Station Location Temp. Windchill Dew Point Humidity Wind Precip. Elev Updated Type
                   

Watches & Warnings

Special Statement
Issued: 3:48 AM CST Feb. 24, 2017 – National Weather Service

... Light snow across portions of the tri state region this
morning...

Light snow will move south across portions of the tri state
region this morning... possibly resulting in slick Road conditions
with only receiving as little as a few tenths of an inch of
snow... especially north of Interstate 70. Travelers should use
caution on area roadways through 800 am MST/900 am CST.


Jn


248 am MST Fri Feb 24 2017 /348 am CST Fri Feb 24 2017/

... Light snow across portions of the tri state region this
morning...

Light snow will move south across portions of the tri state
region this morning... possibly resulting in slick Road conditions
with only receiving as little as a few tenths of an inch of
snow... especially north of Interstate 70. Travelers should use
caution on area roadways through 800 am MST/900 am CST.


Jn